Time;durP1;ratioP1;P1;durP2;ratioP2;P2;SDS_P1;SDS_P2;PMS_P1;PMS_P2;Temp;Humidity;BMP_temperature;BMP_pressure;BME280_temperature;BME280_humidity;BME280_pressure;Samples;Min_cycle;Max_cycle;Signal;HPM_P1;HPM_P2
2022/08/03 00:01:39;;;;;;;4.68;2.58;;;22.30;81.20;;;;;;5081099;28;20504;-73
2022/08/03 00:04:06;;;;;;;5.95;3.38;;;22.20;81.00;;;;;;5087483;28;20032;-72
2022/08/03 00:06:33;;;;;;;4.28;2.20;;;22.20;82.10;;;;;;5095593;28;20392;-73
2022/08/03 00:08:59;;;;;;;2.78;2.10;;;22.10;82.60;;;;;;5081872;28;20030;-73
2022/08/03 00:11:25;;;;;;;4.53;2.28;;;22.10;83.80;;;;;;5079657;28;20080;-73
2022/08/03 00:13:51;;;;;;;5.10;3.70;;;22.10;84.40;;;;;;5079663;28;20029;-72
2022/08/03 00:16:17;;;;;;;6.63;2.35;;;22.00;85.10;;;;;;5080959;28;20028;-73
2022/08/03 00:18:44;;;;;;;5.55;3.17;;;22.00;85.20;;;;;;5077029;28;20034;-72
2022/08/03 00:21:10;;;;;;;5.03;2.92;;;21.90;85.60;;;;;;5077927;28;20028;-72
2022/08/03 00:23:36;;;;;;;4.15;2.60;;;21.80;87.00;;;;;;5079928;28;20025;-73
2022/08/03 00:26:03;;;;;;;6.75;1.80;;;21.80;86.40;;;;;;5076551;28;20016;-73
2022/08/03 00:28:29;;;;;;;2.88;1.85;;;21.80;86.40;;;;;;5078027;28;20020;-73
2022/08/03 00:30:54;;;;;;;5.97;2.22;;;21.80;86.20;;;;;;5082283;28;20019;-72
2022/08/03 00:33:21;;;;;;;4.07;1.80;;;21.70;85.90;;;;;;5076920;28;20405;-73
2022/08/03 00:35:47;;;;;;;3.92;1.70;;;21.60;85.70;;;;;;5080190;28;20099;-72
2022/08/03 00:38:13;;;;;;;3.92;2.05;;;21.60;85.80;;;;;;5081912;28;20407;-72
2022/08/03 00:40:39;;;;;;;5.65;2.05;;;21.50;85.70;;;;;;5079559;28;20081;-73
2022/08/03 00:43:07;;;;;;;2.75;1.50;;;21.50;86.10;;;;;;5082185;28;20070;-72
2022/08/03 00:45:39;;;;;;;3.75;1.33;;;21.40;86.20;;;;;;5076439;28;20108;-73
2022/08/03 00:48:07;;;;;;;2.85;1.73;;;21.30;86.40;;;;;;5093309;28;20477;-72
2022/08/03 00:50:38;;;;;;;2.17;1.52;;;21.30;86.80;;;;;;5079008;28;20032;-73
2022/08/03 00:53:06;;;;;;;2.88;1.73;;;21.30;87.40;;;;;;5079097;28;20071;-73
2022/08/03 00:55:33;;;;;;;2.30;1.67;;;21.30;88.40;;;;;;5077364;28;20028;-73
2022/08/03 00:58:03;;;;;;;2.65;1.63;;;21.20;88.30;;;;;;5081686;28;20048;-72
2022/08/03 01:00:29;;;;;;;4.80;1.90;;;21.20;89.60;;;;;;5089852;28;20024;-73
2022/08/03 01:02:55;;;;;;;3.47;2.10;;;21.10;88.70;;;;;;5079903;28;20027;-72
2022/08/03 01:05:21;;;;;;;2.47;1.90;;;21.10;89.00;;;;;;5075656;28;20112;-72
2022/08/03 01:08:24;;;;;;;4.30;2.40;;;21.00;90.00;;;;;;5080934;28;20024;-72
2022/08/03 01:10:52;;;;;;;3.70;1.73;;;21.00;90.30;;;;;;5075603;28;20074;-73
2022/08/03 01:14:00;;;;;;;5.00;1.80;;;20.90;90.40;;;;;;5079412;28;20024;-72
2022/08/03 01:16:55;;;;;;;5.75;1.88;;;20.80;90.70;;;;;;5071584;28;20055;-73
2022/08/03 01:19:40;;;;;;;4.95;1.52;;;20.80;90.40;;;;;;5075006;28;22063;-72
2022/08/03 01:22:29;;;;;;;3.65;2.17;;;20.70;90.10;;;;;;5090558;28;20511;-72
2022/08/03 01:25:04;;;;;;;1.88;1.50;;;20.70;90.30;;;;;;5083084;28;20174;-72
2022/08/03 01:28:13;;;;;;;2.42;1.95;;;20.70;90.30;;;;;;5077520;28;20024;-72
2022/08/03 01:30:42;;;;;;;3.22;1.50;;;20.70;90.50;;;;;;5090728;28;20036;-73
2022/08/03 01:33:16;;;;;;;2.88;1.73;;;20.70;90.10;;;;;;5086926;28;20030;-73
2022/08/03 01:35:52;;;;;;;1.88;1.50;;;20.70;90.00;;;;;;5076526;28;20035;-73
2022/08/03 01:38:24;;;;;;;2.17;1.65;;;20.60;90.10;;;;;;5079240;28;20025;-73
2022/08/03 01:40:56;;;;;;;2.97;1.50;;;20.60;90.10;;;;;;5083964;28;20028;-72
2022/08/03 01:43:27;;;;;;;2.72;2.15;;;20.50;90.10;;;;;;5080887;28;20481;-72
2022/08/03 01:45:56;;;;;;;3.17;2.38;;;20.60;90.20;;;;;;5079173;28;20063;-73
2022/08/03 01:48:22;;;;;;;4.68;1.80;;;20.50;90.20;;;;;;5081092;28;20086;-72
2022/08/03 01:50:50;;;;;;;5.28;1.77;;;20.50;90.20;;;;;;5081554;28;20115;-73
2022/08/03 01:53:17;;;;;;;3.25;1.80;;;20.50;90.20;;;;;;5086756;28;20037;-73
2022/08/03 01:55:47;;;;;;;3.50;1.73;;;20.50;90.20;;;;;;5080699;28;20117;-73
2022/08/03 01:58:15;;;;;;;2.72;1.55;;;20.50;90.10;;;;;;5079846;28;20142;-73
2022/08/03 02:00:42;;;;;;;2.25;1.52;;;20.40;90.30;;;;;;5088469;28;20032;-73
2022/08/03 02:03:11;;;;;;;2.80;2.00;;;20.40;90.40;;;;;;5078322;28;20025;-72
2022/08/03 02:05:39;;;;;;;2.65;2.00;;;20.30;90.60;;;;;;5082967;28;20025;-72
2022/08/03 02:08:09;;;;;;;2.75;2.17;;;20.30;90.80;;;;;;5091245;28;20016;-73
2022/08/03 02:10:36;;;;;;;2.00;1.75;;;20.20;91.10;;;;;;5078398;28;20036;-72
2022/08/03 02:13:06;;;;;;;4.72;2.25;;;20.20;91.30;;;;;;5084693;28;20025;-72
2022/08/03 02:15:34;;;;;;;4.70;2.00;;;20.10;91.30;;;;;;5082088;28;20399;-74
2022/08/03 02:18:02;;;;;;;5.45;2.10;;;20.00;91.90;;;;;;5089099;28;20024;-72
2022/08/03 02:20:29;;;;;;;3.83;2.00;;;20.00;92.10;;;;;;5080918;28;20032;-72
2022/08/03 02:22:54;;;;;;;3.45;1.88;;;19.90;92.00;;;;;;5084387;28;20393;-72
2022/08/03 02:25:20;;;;;;;5.47;2.03;;;19.80;92.60;;;;;;5077634;28;20024;-73
2022/08/03 02:27:57;;;;;;;2.70;1.90;;;19.80;92.80;;;;;;5079238;28;20020;-72
2022/08/03 02:30:32;;;;;;;5.82;2.35;;;19.70;92.80;;;;;;5077248;28;20024;-72
2022/08/03 02:33:00;;;;;;;2.85;1.80;;;19.70;92.90;;;;;;5093109;28;20020;-72
2022/08/03 02:35:28;;;;;;;2.47;1.75;;;19.60;93.60;;;;;;5090041;28;20554;-72
2022/08/03 02:38:00;;;;;;;10.40;1.77;;;19.60;93.40;;;;;;5083197;28;20552;-72
2022/08/03 02:40:28;;;;;;;4.07;2.20;;;19.50;93.80;;;;;;5084968;28;20059;-72
2022/08/03 02:42:59;;;;;;;6.50;2.00;;;19.50;94.10;;;;;;5083999;28;20028;-73
2022/08/03 02:45:27;;;;;;;5.70;2.30;;;19.50;94.30;;;;;;5088264;28;20480;-73
2022/08/03 02:47:59;;;;;;;6.50;2.20;;;19.40;94.60;;;;;;5088626;28;20441;-72
2022/08/03 02:50:26;;;;;;;2.65;2.03;;;19.40;94.70;;;;;;5091955;28;20056;-72
2022/08/03 02:52:53;;;;;;;6.00;2.33;;;19.30;95.00;;;;;;5091247;28;20051;-72
2022/08/03 02:55:22;;;;;;;3.05;1.90;;;19.20;95.50;;;;;;5080512;28;20044;-73
2022/08/03 02:57:49;;;;;;;6.43;2.63;;;19.20;95.70;;;;;;5078076;28;20033;-72
2022/08/03 03:00:16;;;;;;;3.55;1.90;;;19.20;95.80;;;;;;5088854;28;20051;-72
2022/08/03 03:02:43;;;;;;;2.35;1.95;;;19.20;96.00;;;;;;5090451;28;20031;-73
2022/08/03 03:05:09;;;;;;;2.78;2.00;;;19.20;96.00;;;;;;5090855;28;20056;-72
2022/08/03 03:07:36;;;;;;;6.68;2.40;;;19.10;96.40;;;;;;5082523;28;20111;-73
2022/08/03 03:10:04;;;;;;;4.10;2.33;;;19.10;96.10;;;;;;5079406;28;20052;-73
2022/08/03 03:12:32;;;;;;;5.45;1.75;;;19.10;96.30;;;;;;5083532;28;20024;-73
2022/08/03 03:14:58;;;;;;;4.47;2.17;;;19.00;96.80;;;;;;5077883;28;20028;-73
2022/08/03 03:17:25;;;;;;;3.25;2.55;;;19.00;96.60;;;;;;5087423;28;20024;-73
2022/08/03 03:19:52;;;;;;;6.28;3.00;;;19.00;96.40;;;;;;5078616;28;20025;-72
2022/08/03 03:22:19;;;;;;;8.23;2.65;;;19.00;96.40;;;;;;5084409;28;20024;-73
2022/08/03 03:24:46;;;;;;;5.93;2.20;;;19.00;96.60;;;;;;5077586;28;20119;-73
2022/08/03 03:27:14;;;;;;;3.15;2.08;;;19.00;96.70;;;;;;5077283;28;20048;-72
2022/08/03 03:29:40;;;;;;;4.93;2.22;;;19.00;96.50;;;;;;5086319;28;20042;-73
2022/08/03 03:32:06;;;;;;;9.00;2.28;;;19.00;96.70;;;;;;5093501;28;20026;-73
2022/08/03 03:34:33;;;;;;;9.32;2.20;;;19.00;96.90;;;;;;5081821;28;20020;-72
2022/08/03 03:36:58;;;;;;;5.22;2.45;;;19.00;97.10;;;;;;5083794;28;20032;-72
2022/08/03 03:39:24;;;;;;;5.20;2.42;;;19.00;97.20;;;;;;5077411;28;20024;-72
2022/08/03 03:41:51;;;;;;;3.42;2.05;;;19.00;97.00;;;;;;5092846;28;20158;-73
2022/08/03 03:44:17;;;;;;;6.32;2.10;;;18.90;97.30;;;;;;5087497;28;20029;-72
2022/08/03 03:46:43;;;;;;;5.32;2.20;;;18.90;97.20;;;;;;5078683;28;20035;-72
2022/08/03 03:49:09;;;;;;;3.60;2.20;;;18.80;97.20;;;;;;5084691;28;20035;-72
2022/08/03 03:51:35;;;;;;;4.50;2.00;;;18.80;97.10;;;;;;5077534;28;20107;-72
2022/08/03 03:54:04;;;;;;;4.03;2.67;;;18.80;97.10;;;;;;5082129;28;20067;-72
2022/08/03 03:56:30;;;;;;;3.22;2.45;;;18.80;97.20;;;;;;5083151;28;20107;-72
2022/08/03 03:58:56;;;;;;;5.88;2.53;;;18.80;97.20;;;;;;5077921;28;20063;-72
2022/08/03 04:01:22;;;;;;;3.05;2.17;;;18.70;97.40;;;;;;5093383;28;20028;-72
2022/08/03 04:03:48;;;;;;;6.95;2.47;;;18.70;97.80;;;;;;5077188;28;20104;-73
2022/08/03 04:10:57;;;;;;;4.97;2.35;;;18.70;98.20;;;;;;5080097;28;20030;-72
2022/08/03 04:11:53;;;;;;;3.00;2.00;;;18.70;98.40;;;;;;5076814;28;20086;-72
2022/08/03 04:14:27;;;;;;;5.13;2.33;;;18.70;98.40;;;;;;5078677;28;20032;-73
2022/08/03 04:16:57;;;;;;;3.13;2.25;;;18.70;98.50;;;;;;5075968;28;20039;-73
2022/08/03 04:19:41;;;;;;;5.35;2.30;;;18.60;98.60;;;;;;5088006;28;20044;-72
2022/08/03 04:22:10;;;;;;;4.18;2.30;;;18.60;98.70;;;;;;5081523;28;20059;-73
2022/08/03 04:24:52;;;;;;;3.47;2.30;;;18.70;98.80;;;;;;5078120;28;20043;-72
2022/08/03 04:27:24;;;;;;;5.80;2.85;;;18.70;98.90;;;;;;5079372;28;20116;-72
2022/08/03 04:29:53;;;;;;;3.08;2.17;;;18.70;99.10;;;;;;5075761;28;20026;-73
2022/08/03 04:32:23;;;;;;;3.83;2.72;;;18.60;99.00;;;;;;5081664;28;20064;-73
2022/08/03 04:34:50;;;;;;;4.60;2.80;;;18.70;99.00;;;;;;5079302;28;20016;-72
2022/08/03 04:37:38;;;;;;;5.13;2.50;;;18.70;99.20;;;;;;5086810;28;20070;-72
2022/08/03 04:40:16;;;;;;;3.83;2.35;;;18.60;99.80;;;;;;5076589;28;20078;-73
2022/08/03 04:42:43;;;;;;;5.90;2.70;;;18.70;99.90;;;;;;5080463;28;20070;-73
2022/08/03 04:45:13;;;;;;;4.10;2.53;;;18.70;99.90;;;;;;5078263;28;20024;-72
2022/08/03 04:47:40;;;;;;;6.07;2.97;;;18.70;99.90;;;;;;5083030;28;20432;-73
2022/08/03 04:50:07;;;;;;;4.00;2.40;;;18.70;99.90;;;;;;5077617;28;20027;-73
2022/08/03 04:52:34;;;;;;;4.13;2.40;;;18.70;99.90;;;;;;5079773;28;20116;-73
2022/08/03 04:55:00;;;;;;;6.35;2.78;;;18.70;99.90;;;;;;5081033;28;20036;-73
2022/08/03 04:57:26;;;;;;;5.00;2.47;;;18.80;99.90;;;;;;5080672;28;20507;-73
2022/08/03 04:59:56;;;;;;;8.57;2.35;;;18.80;99.90;;;;;;5079721;28;20008;-73
2022/08/03 05:02:22;;;;;;;6.70;2.30;;;18.80;99.90;;;;;;5076167;28;20028;-73
2022/08/03 05:04:49;;;;;;;9.32;3.08;;;18.90;99.90;;;;;;5086361;28;20290;-72
2022/08/03 05:07:16;;;;;;;5.88;2.47;;;18.90;99.90;;;;;;5080167;28;20020;-73
2022/08/03 05:09:43;;;;;;;15.95;3.42;;;19.00;99.80;;;;;;5085526;28;20028;-72
2022/08/03 05:12:09;;;;;;;6.38;2.38;;;19.10;99.70;;;;;;5076324;28;20020;-72
2022/08/03 05:14:37;;;;;;;3.53;2.30;;;19.20;99.90;;;;;;5082115;28;20039;-72
2022/08/03 05:17:07;;;;;;;4.65;2.70;;;19.30;99.40;;;;;;5086139;28;20113;-73
2022/08/03 05:19:34;;;;;;;9.20;3.22;;;19.50;99.10;;;;;;5075466;28;20488;-72
2022/08/03 05:21:59;;;;;;;2.92;2.30;;;19.60;98.90;;;;;;5074719;28;20089;-73
2022/08/03 05:24:26;;;;;;;4.45;2.05;;;19.70;98.40;;;;;;5078662;28;20033;-72
2022/08/03 05:26:52;;;;;;;4.25;2.63;;;19.80;98.10;;;;;;5076914;28;20104;-73
2022/08/03 05:29:18;;;;;;;3.80;2.50;;;20.00;97.80;;;;;;5077043;28;20039;-72
2022/08/03 05:31:44;;;;;;;3.70;2.35;;;20.10;97.70;;;;;;5079896;28;20656;-73
2022/08/03 05:34:09;;;;;;;3.63;2.65;;;20.20;97.40;;;;;;5080090;28;20024;-72
2022/08/03 05:36:35;;;;;;;8.48;2.50;;;20.30;97.20;;;;;;5074608;28;20793;-73
2022/08/03 05:39:01;;;;;;;6.60;2.55;;;20.40;97.90;;;;;;5076474;28;20094;-72
2022/08/03 05:41:27;;;;;;;7.07;2.83;;;20.50;97.90;;;;;;5079532;28;20028;-73
2022/08/03 05:43:54;;;;;;;4.10;2.50;;;20.60;98.40;;;;;;5076262;28;20028;-73
2022/08/03 05:46:23;;;;;;;4.95;2.40;;;20.60;98.10;;;;;;5075536;28;20028;-73
2022/08/03 05:48:49;;;;;;;3.25;2.22;;;20.70;98.30;;;;;;5081821;28;20043;-72
2022/08/03 05:51:15;;;;;;;8.32;2.92;;;20.70;98.10;;;;;;5088704;28;20044;-73
2022/08/03 05:53:42;;;;;;;4.78;2.38;;;20.80;98.40;;;;;;5078160;28;20119;-73
2022/08/03 05:56:08;;;;;;;5.97;2.38;;;20.90;98.50;;;;;;5078868;28;20036;-72
2022/08/03 05:58:34;;;;;;;4.18;2.38;;;20.90;98.50;;;;;;5078522;28;20025;-73
2022/08/03 06:01:00;;;;;;;4.65;2.53;;;21.00;98.20;;;;;;5078747;28;20055;-72
2022/08/03 06:03:26;;;;;;;3.17;2.25;;;21.10;97.50;;;;;;5078664;28;20028;-74
2022/08/03 06:05:57;;;;;;;6.63;2.17;;;21.20;97.50;;;;;;5095355;28;20055;-76
2022/08/03 06:08:23;;;;;;;5.82;2.40;;;21.30;97.30;;;;;;5096950;28;20031;-75
2022/08/03 06:10:49;;;;;;;9.07;2.65;;;21.40;98.20;;;;;;5088239;28;20020;-74
2022/08/03 06:13:15;;;;;;;7.25;2.33;;;21.50;98.00;;;;;;5082424;28;20016;-74
2022/08/03 06:15:41;;;;;;;5.43;2.40;;;21.60;97.10;;;;;;5085107;28;20028;-74
2022/08/03 06:18:07;;;;;;;5.05;2.33;;;21.70;98.00;;;;;;5091197;28;20104;-74
2022/08/03 06:20:33;;;;;;;5.15;2.38;;;21.80;97.30;;;;;;5083023;28;20024;-74
2022/08/03 06:22:59;;;;;;;7.30;2.95;;;21.90;96.70;;;;;;5086381;28;20119;-74
2022/08/03 06:25:25;;;;;;;4.78;2.30;;;22.00;96.20;;;;;;5084697;28;20033;-74
2022/08/03 06:27:51;;;;;;;5.43;2.28;;;22.20;96.80;;;;;;5088880;28;20012;-74
2022/08/03 06:30:17;;;;;;;5.53;2.70;;;22.30;96.30;;;;;;5094114;28;20019;-74
2022/08/03 06:32:44;;;;;;;9.73;2.55;;;22.40;95.80;;;;;;5086354;28;20113;-74
2022/08/03 06:35:10;;;;;;;9.35;3.05;;;22.50;95.90;;;;;;5091299;28;20055;-74
2022/08/03 06:37:45;;;;;;;5.53;2.60;;;22.60;95.20;;;;;;5099179;28;20023;-74
2022/08/03 06:40:17;;;;;;;5.88;2.50;;;22.70;94.90;;;;;;5090079;28;21584;-74
2022/08/03 06:42:43;;;;;;;5.43;2.22;;;22.80;95.40;;;;;;5096358;28;20045;-73
2022/08/03 06:45:11;;;;;;;5.80;2.10;;;22.80;95.10;;;;;;5096723;28;20043;-73
2022/08/03 06:47:38;;;;;;;14.65;2.40;;;22.90;95.40;;;;;;5094994;28;20016;-73
2022/08/03 06:50:05;;;;;;;6.38;2.13;;;23.00;95.40;;;;;;5075361;28;20077;-74
2022/08/03 06:52:31;;;;;;;5.95;2.78;;;23.10;95.40;;;;;;5096028;28;20020;-74
2022/08/03 06:54:57;;;;;;;12.43;2.78;;;23.10;95.10;;;;;;5091422;28;20028;-74
2022/08/03 06:57:23;;;;;;;4.85;2.55;;;23.20;95.30;;;;;;5096355;28;20020;-73
2022/08/03 06:59:49;;;;;;;7.38;2.63;;;23.40;95.60;;;;;;5083532;28;20047;-74
2022/08/03 07:02:15;;;;;;;8.05;2.60;;;23.50;95.20;;;;;;5090637;28;20460;-74
2022/08/03 07:04:41;;;;;;;6.47;2.45;;;23.70;94.80;;;;;;5094720;28;20029;-74
2022/08/03 07:07:07;;;;;;;6.07;2.53;;;23.70;94.90;;;;;;5083751;28;20112;-74
2022/08/03 07:09:33;;;;;;;6.75;2.22;;;23.90;95.40;;;;;;5082548;28;20443;-74
2022/08/03 07:12:01;;;;;;;7.18;2.40;;;24.10;94.60;;;;;;5082431;28;20013;-74
2022/08/03 07:14:27;;;;;;;4.88;2.65;;;24.20;95.20;;;;;;5096622;28;20035;-74
2022/08/03 07:16:53;;;;;;;5.70;2.30;;;24.40;94.00;;;;;;5091410;28;20070;-74
2022/08/03 07:19:18;;;;;;;4.35;2.17;;;24.40;94.00;;;;;;5086879;28;20023;-74
2022/08/03 07:21:44;;;;;;;4.38;2.38;;;24.60;94.60;;;;;;5092053;28;20052;-74
2022/08/03 07:24:10;;;;;;;4.32;2.70;;;24.70;94.50;;;;;;5081137;28;20052;-74
2022/08/03 07:26:36;;;;;;;11.80;2.45;;;24.80;93.90;;;;;;5081530;28;20039;-74
2022/08/03 07:29:02;;;;;;;7.28;2.38;;;25.00;93.60;;;;;;5085517;28;20021;-74
2022/08/03 07:31:28;;;;;;;3.58;2.20;;;25.20;94.30;;;;;;5091535;28;20047;-74
2022/08/03 07:33:54;;;;;;;6.50;2.85;;;25.30;93.50;;;;;;5081326;28;20027;-74
2022/08/03 07:36:21;;;;;;;4.63;2.53;;;25.50;93.00;;;;;;5085791;28;20508;-74
2022/08/03 07:38:47;;;;;;;4.25;2.30;;;25.60;93.70;;;;;;5087453;28;20021;-73
2022/08/03 07:41:12;;;;;;;4.65;2.50;;;25.70;93.90;;;;;;5087317;28;20035;-74
2022/08/03 07:43:38;;;;;;;3.70;1.90;;;25.80;93.20;;;;;;5082956;28;20617;-74
2022/08/03 07:46:04;;;;;;;6.65;2.55;;;26.00;93.30;;;;;;5092188;28;20451;-74
2022/08/03 07:48:30;;;;;;;5.82;2.42;;;26.10;93.50;;;;;;5096956;28;20020;-73
2022/08/03 07:50:55;;;;;;;6.32;2.85;;;26.30;93.50;;;;;;5094599;28;20504;-74
2022/08/03 07:53:21;;;;;;;8.90;2.72;;;26.50;93.30;;;;;;5094091;28;20075;-73
2022/08/03 07:55:47;;;;;;;7.82;3.03;;;26.70;93.50;;;;;;5090736;28;20063;-74
2022/08/03 07:58:16;;;;;;;7.53;3.05;;;26.80;92.60;;;;;;5093203;28;20035;-73
2022/08/03 08:00:43;;;;;;;4.63;2.55;;;27.00;92.80;;;;;;5094112;28;20393;-73
2022/08/03 08:03:11;;;;;;;7.65;2.55;;;27.10;93.10;;;;;;5096538;28;20508;-72
2022/08/03 08:05:36;;;;;;;10.10;2.67;;;27.30;92.00;;;;;;5096763;28;20028;-73
2022/08/03 08:08:03;;;;;;;7.72;2.53;;;27.50;91.70;;;;;;5094728;28;20531;-73
2022/08/03 08:10:29;;;;;;;7.03;2.65;;;27.60;91.50;;;;;;5091504;28;20020;-73
2022/08/03 08:12:56;;;;;;;8.20;2.42;;;27.80;90.80;;;;;;5090969;28;20072;-73
2022/08/03 08:15:22;;;;;;;5.22;2.63;;;27.90;90.80;;;;;;5087504;28;20021;-73
2022/08/03 08:17:49;;;;;;;3.75;2.35;;;28.10;90.70;;;;;;5097009;28;20032;-74
2022/08/03 08:20:18;;;;;;;4.47;2.47;;;28.20;90.50;;;;;;5094074;28;20024;-73
2022/08/03 08:22:44;;;;;;;8.52;2.67;;;28.40;90.50;;;;;;5080222;28;20028;-73
2022/08/03 08:25:09;;;;;;;9.38;2.75;;;28.50;90.00;;;;;;5092024;28;20028;-72
2022/08/03 08:27:44;;;;;;;3.75;2.53;;;28.50;88.70;;;;;;5096590;28;20917;-72
2022/08/03 08:30:12;;;;;;;6.32;2.78;;;28.70;89.00;;;;;;5094249;28;20016;-72
2022/08/03 08:32:38;;;;;;;8.68;3.00;;;28.80;88.40;;;;;;5093802;28;20478;-73
2022/08/03 08:35:05;;;;;;;6.43;2.20;;;28.90;88.50;;;;;;5087675;28;20374;-72
2022/08/03 08:37:31;;;;;;;4.43;2.40;;;29.00;87.80;;;;;;5091960;28;20476;-73
2022/08/03 08:39:57;;;;;;;4.18;2.75;;;29.00;87.80;;;;;;5090253;28;20414;-73
2022/08/03 08:42:24;;;;;;;7.00;2.10;;;29.10;87.60;;;;;;5095883;28;20036;-71
2022/08/03 08:44:50;;;;;;;11.18;2.47;;;29.30;87.30;;;;;;5087165;28;20036;-71
2022/08/03 08:47:23;;;;;;;6.75;2.75;;;29.30;86.30;;;;;;5086979;28;20028;-71
2022/08/03 08:49:53;;;;;;;3.83;2.30;;;29.40;86.40;;;;;;5090320;28;20451;-73
2022/08/03 08:52:23;;;;;;;;;;;29.50;85.50;;;;;;5091231;28;20020;-73
2022/08/03 08:54:51;;;;;;;9.03;2.20;;;29.50;85.10;;;;;;5084352;28;19935;-73
2022/08/03 08:57:19;;;;;;;5.55;2.42;;;29.60;86.50;;;;;;5097763;28;20280;-73
2022/08/03 08:59:44;;;;;;;4.60;2.05;;;29.70;84.60;;;;;;5096929;28;20472;-73
2022/08/03 09:02:11;;;;;;;4.93;2.70;;;29.80;84.90;;;;;;5080283;28;20043;-70
2022/08/03 09:04:38;;;;;;;7.45;2.20;;;29.90;84.20;;;;;;5091537;28;20042;-70
2022/08/03 09:07:05;;;;;;;5.65;2.42;;;29.90;84.60;;;;;;5087037;28;20044;-70
2022/08/03 09:09:31;;;;;;;4.50;2.83;;;29.90;85.30;;;;;;5083748;28;20025;-70
2022/08/03 09:11:56;;;;;;;6.40;2.53;;;30.10;84.40;;;;;;5092918;28;20032;-69
2022/08/03 09:14:23;;;;;;;7.93;2.33;;;30.10;82.90;;;;;;5080280;28;20038;-70
2022/08/03 09:17:03;;;;;;;5.32;2.38;;;30.20;82.20;;;;;;5081597;28;20056;-69
2022/08/03 09:19:30;;;;;;;5.25;2.33;;;30.30;81.20;;;;;;5088920;28;20032;-70
2022/08/03 09:22:10;;;;;;;4.25;2.15;;;30.40;81.60;;;;;;5078861;28;20021;-70
2022/08/03 09:24:36;;;;;;;6.43;2.33;;;30.30;80.80;;;;;;5088822;28;20028;-70
2022/08/03 09:27:10;;;;;;;5.32;2.28;;;30.50;80.40;;;;;;5094977;28;20016;-72
2022/08/03 09:29:37;;;;;;;5.85;2.40;;;30.50;79.70;;;;;;5093945;28;20028;-71
2022/08/03 09:32:03;;;;;;;5.60;2.38;;;30.80;80.90;;;;;;5084911;28;20024;-71
2022/08/03 09:34:30;;;;;;;4.45;2.50;;;30.90;79.30;;;;;;5081318;28;20032;-71
2022/08/03 09:36:58;;;;;;;5.60;2.50;;;30.90;77.60;;;;;;5083475;28;20393;-71
2022/08/03 09:39:30;;;;;;;4.18;2.38;;;30.90;77.30;;;;;;5091922;28;20036;-71
2022/08/03 09:42:21;;;;;;;6.13;2.10;;;31.00;77.60;;;;;;5095472;28;20079;-71
2022/08/03 09:44:49;;;;;;;8.60;2.63;;;30.90;77.70;;;;;;5096329;28;20024;-70
2022/08/03 09:47:27;;;;;;;8.52;2.25;;;31.00;76.60;;;;;;5083794;28;20025;-71
2022/08/03 09:50:07;;;;;;;4.70;2.30;;;31.10;77.40;;;;;;5084862;28;20020;-71
2022/08/03 09:52:36;;;;;;;4.25;2.15;;;31.20;75.50;;;;;;5091654;28;20048;-71
2022/08/03 09:55:08;;;;;;;4.85;2.15;;;31.30;74.20;;;;;;5089155;28;20032;-73
2022/08/03 09:57:33;;;;;;;7.05;2.30;;;31.30;74.30;;;;;;5096155;28;20044;-70
2022/08/03 10:00:17;;;;;;;5.45;1.85;;;31.40;74.80;;;;;;5089489;28;20024;-71
2022/08/03 10:02:44;;;;;;;6.35;1.90;;;31.40;74.00;;;;;;5083755;28;20055;-71
2022/08/03 10:05:11;;;;;;;5.85;2.03;;;31.50;73.20;;;;;;5084506;28;20107;-73
2022/08/03 10:07:43;;;;;;;9.20;2.53;;;31.60;74.60;;;;;;5099738;28;20020;-71
2022/08/03 10:10:09;;;;;;;8.48;2.30;;;31.60;73.60;;;;;;5085144;28;20025;-72
2022/08/03 10:12:36;;;;;;;5.72;2.00;;;31.60;74.10;;;;;;5087477;28;20079;-73
2022/08/03 10:15:02;;;;;;;4.85;2.10;;;31.70;73.40;;;;;;5096083;28;20429;-72
2022/08/03 10:17:28;;;;;;;7.00;2.20;;;31.80;72.60;;;;;;5097779;28;20430;-72
2022/08/03 10:19:54;;;;;;;7.93;1.98;;;31.90;71.70;;;;;;5095241;28;20036;-72
2022/08/03 10:22:26;;;;;;;3.75;1.85;;;31.90;71.10;;;;;;5095250;28;20035;-72
2022/08/03 10:24:57;;;;;;;5.90;1.83;;;32.00;71.20;;;;;;5091295;28;20036;-72
2022/08/03 10:27:24;;;;;;;5.50;2.00;;;32.10;69.90;;;;;;5083589;28;20017;-72
2022/08/03 10:29:53;;;;;;;8.60;2.25;;;32.00;68.40;;;;;;5081328;28;20523;-72
2022/08/03 10:32:37;;;;;;;5.18;1.95;;;32.10;69.30;;;;;;5097693;28;20048;-72
2022/08/03 10:35:09;;;;;;;5.85;2.03;;;32.10;69.50;;;;;;5081098;28;20046;-73
2022/08/03 10:38:08;;;;;;;9.32;2.63;;;32.20;69.60;;;;;;5087376;28;20023;-72
2022/08/03 10:40:36;;;;;;;5.70;2.00;;;32.40;69.00;;;;;;5091735;28;20044;-73
2022/08/03 10:43:15;;;;;;;6.47;2.17;;;32.40;69.00;;;;;;5080360;28;20025;-72
2022/08/03 10:45:42;;;;;;;3.55;2.20;;;32.50;69.10;;;;;;5093134;28;20127;-72
2022/08/03 10:48:09;;;;;;;6.38;2.00;;;32.50;68.60;;;;;;5080572;28;20488;-75
2022/08/03 10:50:35;;;;;;;8.70;2.75;;;32.50;68.60;;;;;;5079611;28;20029;-72
2022/08/03 10:53:07;;;;;;;3.83;1.83;;;32.50;66.30;;;;;;5082002;28;20044;-73
2022/08/03 10:58:38;;;;;;;3.00;2.17;;;32.80;67.80;;;;;;5089774;28;20036;-73
2022/08/03 11:01:09;;;;;;;5.40;1.77;;;32.90;63.60;;;;;;5088611;28;20021;-72
2022/08/03 11:03:54;;;;;;;5.82;2.08;;;32.90;63.50;;;;;;5088238;28;20442;-75
2022/08/03 11:06:25;;;;;;;4.55;1.98;;;33.00;65.00;;;;;;5080961;28;20032;-75
2022/08/03 11:09:10;;;;;;;;;;;33.00;64.20;;;;;;5082793;28;20024;-75
2022/08/03 11:11:38;;;;;;;5.78;2.20;;;33.10;63.30;;;;;;5084989;28;19908;-75
2022/08/03 11:14:11;;;;;;;3.00;1.83;;;33.10;62.00;;;;;;5079606;28;20037;-75
2022/08/03 11:17:03;;;;;;;5.68;1.65;;;33.10;61.10;;;;;;5078247;28;20115;-75
2022/08/03 11:19:44;;;;;;;4.38;2.67;;;33.10;60.60;;;;;;5081043;28;20036;-72
2022/08/03 11:22:10;;;;;;;4.70;1.75;;;33.10;62.20;;;;;;5076863;28;20067;-73
2022/08/03 11:24:36;;;;;;;5.20;2.50;;;33.10;62.80;;;;;;5078043;28;20035;-73
2022/08/03 11:27:14;;;;;;;4.45;2.42;;;33.20;63.40;;;;;;5083169;28;20047;-72
2022/08/03 11:30:05;;;;;;;3.47;1.88;;;33.20;62.70;;;;;;5080759;28;20513;-72
2022/08/03 11:32:37;;;;;;;3.13;1.90;;;33.30;61.80;;;;;;5087566;28;20056;-72
2022/08/03 11:35:24;;;;;;;5.68;2.13;;;33.30;63.50;;;;;;5077010;28;20081;-72
2022/08/03 11:37:55;;;;;;;5.90;1.95;;;33.40;63.90;;;;;;5078572;28;20029;-73
2022/08/03 11:40:43;;;;;;;5.25;1.88;;;33.40;62.30;;;;;;5088826;28;20032;-73
2022/08/03 11:43:29;;;;;;;3.17;1.88;;;33.40;61.70;;;;;;5091248;28;20036;-73
2022/08/03 11:45:58;;;;;;;3.33;1.65;;;33.40;62.00;;;;;;5079197;28;20034;-73
2022/08/03 11:48:45;;;;;;;2.73;1.97;;;33.50;60.10;;;;;;5088522;28;20017;-72
2022/08/03 11:51:25;;;;;;;4.47;1.92;;;33.60;60.00;;;;;;5092149;28;20314;-72
2022/08/03 11:54:01;;;;;;;6.70;2.27;;;33.60;59.60;;;;;;5093294;28;20101;-72
2022/08/03 11:56:41;;;;;;;3.78;2.40;;;33.70;58.80;;;;;;5082610;28;20623;-73
2022/08/03 11:59:07;;;;;;;4.15;2.15;;;33.70;60.30;;;;;;5076710;28;20024;-72
2022/08/03 12:01:33;;;;;;;3.63;2.10;;;33.70;61.50;;;;;;5079948;28;20492;-72
2022/08/03 12:04:03;;;;;;;7.50;2.10;;;33.70;63.00;;;;;;5084579;28;20031;-72
2022/08/03 12:06:29;;;;;;;4.90;2.20;;;33.70;62.00;;;;;;5084725;28;20397;-73
2022/08/03 12:08:55;;;;;;;5.88;2.13;;;33.80;60.50;;;;;;5078991;28;20066;-73
2022/08/03 12:11:21;;;;;;;5.88;1.85;;;33.80;60.50;;;;;;5080013;28;20032;-72
2022/08/03 12:13:52;;;;;;;8.88;2.50;;;33.80;61.10;;;;;;5077188;28;20093;-73
2022/08/03 12:16:23;;;;;;;6.68;1.83;;;33.90;61.20;;;;;;5088605;28;20034;-73
2022/08/03 12:19:03;;;;;;;5.28;1.63;;;34.00;60.50;;;;;;5079523;28;20031;-73
2022/08/03 12:21:30;;;;;;;4.65;1.80;;;34.10;62.00;;;;;;5077531;28;20452;-73
2022/08/03 12:23:59;;;;;;;6.03;2.30;;;34.20;61.70;;;;;;5081638;28;20021;-73
2022/08/03 12:26:26;;;;;;;6.07;2.05;;;34.20;62.60;;;;;;5079063;28;20055;-73
2022/08/03 12:28:51;;;;;;;5.20;2.00;;;34.20;62.50;;;;;;5080584;28;20028;-73
2022/08/03 12:31:18;;;;;;;5.32;2.58;;;34.30;62.50;;;;;;5086527;28;20484;-73
2022/08/03 12:34:05;;;;;;;4.10;2.03;;;34.30;61.80;;;;;;5088494;28;20024;-73
2022/08/03 12:36:33;;;;;;;3.53;2.40;;;34.40;62.20;;;;;;5077237;28;20606;-73
2022/08/03 12:39:06;;;;;;;3.90;1.92;;;34.40;62.40;;;;;;5078300;28;20024;-73
2022/08/03 12:41:34;;;;;;;4.95;2.25;;;34.40;61.80;;;;;;5090854;28;20021;-72
2022/08/03 12:44:02;;;;;;;4.32;2.28;;;34.50;62.70;;;;;;5089207;28;20025;-73
2022/08/03 12:46:39;;;;;;;7.50;2.20;;;34.60;61.10;;;;;;5081742;28;20032;-73
2022/08/03 12:49:08;;;;;;;9.73;1.80;;;34.60;60.60;;;;;;5083015;28;20021;-73
2022/08/03 12:51:37;;;;;;;4.65;2.08;;;34.70;61.00;;;;;;5073995;28;20024;-73
2022/08/03 12:54:04;;;;;;;5.13;2.58;;;34.70;61.30;;;;;;5076730;28;20089;-73
2022/08/03 12:56:30;;;;;;;3.05;2.05;;;34.80;60.70;;;;;;5077987;28;20600;-73
2022/08/03 12:58:55;;;;;;;7.75;2.20;;;34.80;59.30;;;;;;5080989;28;20107;-72
2022/08/03 13:01:23;;;;;;;6.97;2.20;;;34.90;59.10;;;;;;5082517;28;20048;-73
2022/08/03 13:03:52;;;;;;;8.25;2.13;;;34.90;59.20;;;;;;5079983;28;20015;-72
2022/08/03 13:06:23;;;;;;;3.60;2.00;;;35.00;60.10;;;;;;5078484;28;20519;-72